Airport View

Enter AWOS ICAO identifier for current METAR.

ex. KFNL

K82C 262215Z AUTO 32009KT 7SM OVC045 M02/M10 A3013 RMK AO2 T10221105

26 Feb 2020 22:29

Frequency: 123.925

Phone: 608-562-6153

Other Area AWOS: KVOK - KC35 - KDLL - KCMY

TAF AMD KVOK 261812Z 2618/2723 35012G18KT 9999 BKN034 BKN180 QNH3016INS BECMG 2623/2624 32012G18KT 9999 FEW016 QNH3016INS BECMG 2705/2706 30009KT 9999 SCT009 QNH3010INS TXM02/2620Z TNM07/2711Z LAST NO AMDS AFT 2622 NEXT 2709